sensor_id;sensor_type;location;lat;lon;timestamp;pressure;altitude;pressure_sealevel;temperature;humidity
3294;BME280;1659;51.470;6.770;2023-04-05T00:02:15;102266.47;;;3.15;56.49
3294;BME280;1659;51.470;6.770;2023-04-05T00:04:44;102266.41;;;3.13;55.96
3294;BME280;1659;51.470;6.770;2023-04-05T00:07:16;102269.84;;;3.12;56.38
3294;BME280;1659;51.470;6.770;2023-04-05T00:09:43;102268.97;;;3.12;56.38
3294;BME280;1659;51.470;6.770;2023-04-05T00:12:10;102265.47;;;3.11;56.57
3294;BME280;1659;51.470;6.770;2023-04-05T00:14:36;102258.47;;;3.10;57.00
3294;BME280;1659;51.470;6.770;2023-04-05T00:17:03;102265.41;;;3.10;56.71
3294;BME280;1659;51.470;6.770;2023-04-05T00:19:29;102263.56;;;3.07;56.58
3294;BME280;1659;51.470;6.770;2023-04-05T00:21:59;102272.25;;;3.06;57.28
3294;BME280;1659;51.470;6.770;2023-04-05T00:24:26;102272.13;;;3.03;57.05
3294;BME280;1659;51.470;6.770;2023-04-05T00:26:53;102266.84;;;3.01;57.07
3294;BME280;1659;51.470;6.770;2023-04-05T00:29:20;102263.38;;;3.01;57.70
3294;BME280;1659;51.470;6.770;2023-04-05T00:31:47;102264.19;;;3.00;58.00
3294;BME280;1659;51.470;6.770;2023-04-05T00:34:13;102256.22;;;2.97;57.61
3294;BME280;1659;51.470;6.770;2023-04-05T00:36:40;102249.19;;;2.94;57.65
3294;BME280;1659;51.470;6.770;2023-04-05T00:39:08;102256.16;;;2.94;57.89
3294;BME280;1659;51.470;6.770;2023-04-05T00:41:34;102256.91;;;2.91;58.24
3294;BME280;1659;51.470;6.770;2023-04-05T00:44:01;102260.38;;;2.90;57.99
3294;BME280;1659;51.470;6.770;2023-04-05T00:46:28;102253.28;;;2.88;58.28
3294;BME280;1659;51.470;6.770;2023-04-05T00:48:54;102251.41;;;2.83;58.20
3294;BME280;1659;51.470;6.770;2023-04-05T00:51:22;102246.88;;;2.79;58.11
3294;BME280;1659;51.470;6.770;2023-04-05T00:53:49;102252.84;;;2.75;59.03
3294;BME280;1659;51.470;6.770;2023-04-05T00:56:19;102252.78;;;2.74;58.67
3294;BME280;1659;51.470;6.770;2023-04-05T00:58:47;102261.41;;;2.71;59.19
3294;BME280;1659;51.470;6.770;2023-04-05T01:01:17;102262.09;;;2.67;59.24
3294;BME280;1659;51.470;6.770;2023-04-05T01:03:47;102246.34;;;2.64;59.57
3294;BME280;1659;51.470;6.770;2023-04-05T01:06:27;102237.44;;;2.59;58.87
3294;BME280;1659;51.470;6.770;2023-04-05T01:09:04;102240.81;;;2.56;59.65
3294;BME280;1659;51.470;6.770;2023-04-05T01:11:37;102233.72;;;2.52;59.24
3294;BME280;1659;51.470;6.770;2023-04-05T01:14:05;102235.25;;;2.47;59.36
3294;BME280;1659;51.470;6.770;2023-04-05T01:16:31;102236.00;;;2.44;60.01
3294;BME280;1659;51.470;6.770;2023-04-05T01:18:58;102234.19;;;2.42;59.79
3294;BME280;1659;51.470;6.770;2023-04-05T01:24:48;102233.84;;;2.33;60.27
3294;BME280;1659;51.470;6.770;2023-04-05T01:27:22;102232.00;;;2.30;60.60
3294;BME280;1659;51.470;6.770;2023-04-05T01:30:02;102233.66;;;2.28;60.31
3294;BME280;1659;51.470;6.770;2023-04-05T01:32:39;102227.44;;;2.24;60.23
3294;BME280;1659;51.470;6.770;2023-04-05T01:35:16;102226.44;;;2.21;60.52
3294;BME280;1659;51.470;6.770;2023-04-05T01:37:48;102228.09;;;2.19;60.32
3294;BME280;1659;51.470;6.770;2023-04-05T01:40:18;102220.13;;;2.16;60.98
3294;BME280;1659;51.470;6.770;2023-04-05T01:42:45;102221.88;;;2.15;61.10
3294;BME280;1659;51.470;6.770;2023-04-05T01:45:12;102221.81;;;2.14;61.39
3294;BME280;1659;51.470;6.770;2023-04-05T01:47:39;102214.72;;;2.11;61.42
3294;BME280;1659;51.470;6.770;2023-04-05T01:50:07;102210.31;;;2.08;60.84
3294;BME280;1659;51.470;6.770;2023-04-05T01:52:34;102216.19;;;2.04;61.53
3294;BME280;1659;51.470;6.770;2023-04-05T01:55:00;102209.97;;;2.01;61.66
3294;BME280;1659;51.470;6.770;2023-04-05T01:57:28;102209.88;;;1.98;61.92
3294;BME280;1659;51.470;6.770;2023-04-05T01:59:55;102206.31;;;1.96;61.36
3294;BME280;1659;51.470;6.770;2023-04-05T02:02:22;102204.47;;;1.93;61.86
3294;BME280;1659;51.470;6.770;2023-04-05T02:04:49;102194.84;;;1.91;62.33
3294;BME280;1659;51.470;6.770;2023-04-05T02:07:16;102197.38;;;1.89;62.42
3294;BME280;1659;51.470;6.770;2023-04-05T02:09:43;102197.38;;;1.89;62.02
3294;BME280;1659;51.470;6.770;2023-04-05T02:12:09;102201.66;;;1.88;62.16
3294;BME280;1659;51.470;6.770;2023-04-05T02:14:36;102192.97;;;1.88;61.91
3294;BME280;1659;51.470;6.770;2023-04-05T02:17:03;102201.66;;;1.88;62.50
3294;BME280;1659;51.470;6.770;2023-04-05T02:19:31;102199.00;;;1.87;62.10
3294;BME280;1659;51.470;6.770;2023-04-05T02:22:01;102195.50;;;1.86;62.83
3294;BME280;1659;51.470;6.770;2023-04-05T02:24:28;102198.97;;;1.85;62.29
3294;BME280;1659;51.470;6.770;2023-04-05T02:26:54;102190.13;;;1.82;63.11
3294;BME280;1659;51.470;6.770;2023-04-05T02:29:21;102194.31;;;1.78;62.59
3294;BME280;1659;51.470;6.770;2023-04-05T02:31:48;102198.50;;;1.75;63.12
3294;BME280;1659;51.470;6.770;2023-04-05T02:34:14;102194.88;;;1.71;62.73
3294;BME280;1659;51.470;6.770;2023-04-05T02:36:42;102199.16;;;1.69;63.30
3294;BME280;1659;51.470;6.770;2023-04-05T02:39:09;102190.31;;;1.65;63.05
3294;BME280;1659;51.470;6.770;2023-04-05T02:41:36;102193.78;;;1.64;63.18
3294;BME280;1659;51.470;6.770;2023-04-05T02:44:02;102198.09;;;1.64;63.11
3294;BME280;1659;51.470;6.770;2023-04-05T02:46:29;102194.59;;;1.63;63.32
3294;BME280;1659;51.470;6.770;2023-04-05T02:48:56;102191.22;;;1.66;63.24
3294;BME280;1659;51.470;6.770;2023-04-05T02:51:22;102189.50;;;1.66;63.43
3294;BME280;1659;51.470;6.770;2023-04-05T02:53:50;102197.34;;;1.66;63.98
3294;BME280;1659;51.470;6.770;2023-04-05T02:56:17;102186.00;;;1.66;63.94
3294;BME280;1659;51.470;6.770;2023-04-05T02:58:46;102192.06;;;1.65;63.64
3294;BME280;1659;51.470;6.770;2023-04-05T03:01:13;102196.38;;;1.64;63.86
3294;BME280;1659;51.470;6.770;2023-04-05T03:03:42;102197.13;;;1.62;63.78
3294;BME280;1659;51.470;6.770;2023-04-05T03:06:08;102191.78;;;1.59;64.38
3294;BME280;1659;51.470;6.770;2023-04-05T03:08:35;102196.94;;;1.57;64.47
3294;BME280;1659;51.470;6.770;2023-04-05T03:11:04;102188.06;;;1.52;64.34
3294;BME280;1659;51.470;6.770;2023-04-05T03:13:31;102184.38;;;1.47;64.21
3294;BME280;1659;51.470;6.770;2023-04-05T03:15:58;102192.88;;;1.43;64.51
3294;BME280;1659;51.470;6.770;2023-04-05T03:18:24;102180.56;;;1.39;65.00
3294;BME280;1659;51.470;6.770;2023-04-05T03:20:52;102186.47;;;1.35;64.93
3294;BME280;1659;51.470;6.770;2023-04-05T03:23:20;102178.47;;;1.30;64.86
3294;BME280;1659;51.470;6.770;2023-04-05T03:25:52;102178.41;;;1.28;64.89
3294;BME280;1659;51.470;6.770;2023-04-05T03:28:21;102184.41;;;1.27;65.41
3294;BME280;1659;51.470;6.770;2023-04-05T03:30:48;102181.78;;;1.26;64.72
3294;BME280;1659;51.470;6.770;2023-04-05T03:33:15;102184.25;;;1.23;65.46
3294;BME280;1659;51.470;6.770;2023-04-05T03:35:41;102183.28;;;1.21;65.40
3294;BME280;1659;51.470;6.770;2023-04-05T03:38:08;102177.06;;;1.17;65.09
3294;BME280;1659;51.470;6.770;2023-04-05T03:40:34;102182.13;;;1.14;65.21
3294;BME280;1659;51.470;6.770;2023-04-05T03:43:01;102178.59;;;1.12;65.44
3294;BME280;1659;51.470;6.770;2023-04-05T03:45:29;102175.84;;;1.09;65.38
3294;BME280;1659;51.470;6.770;2023-04-05T03:47:56;102179.13;;;1.05;66.07
3294;BME280;1659;51.470;6.770;2023-04-05T03:50:23;102166.88;;;1.02;65.40
3294;BME280;1659;51.470;6.770;2023-04-05T03:52:50;102177.28;;;1.02;65.78
3294;BME280;1659;51.470;6.770;2023-04-05T03:55:17;102173.03;;;1.04;66.08
3294;BME280;1659;51.470;6.770;2023-04-05T03:57:43;102170.44;;;1.04;65.77
3294;BME280;1659;51.470;6.770;2023-04-05T04:00:11;102173.09;;;1.06;65.83
3294;BME280;1659;51.470;6.770;2023-04-05T04:02:42;102169.69;;;1.07;65.71
3294;BME280;1659;51.470;6.770;2023-04-05T04:05:11;102173.97;;;1.06;65.98
3294;BME280;1659;51.470;6.770;2023-04-05T04:07:38;102171.31;;;1.05;66.32
3294;BME280;1659;51.470;6.770;2023-04-05T04:10:07;102173.81;;;1.02;66.51
3294;BME280;1659;51.470;6.770;2023-04-05T04:12:34;102161.53;;;0.99;66.45
3294;BME280;1659;51.470;6.770;2023-04-05T04:15:00;102167.50;;;0.97;65.97
3294;BME280;1659;51.470;6.770;2023-04-05T04:17:27;102168.25;;;0.94;66.89
3294;BME280;1659;51.470;6.770;2023-04-05T04:19:56;102173.34;;;0.91;67.00
3294;BME280;1659;51.470;6.770;2023-04-05T04:22:23;102179.44;;;0.91;66.38
3294;BME280;1659;51.470;6.770;2023-04-05T04:24:57;102168.00;;;0.88;66.40
3294;BME280;1659;51.470;6.770;2023-04-05T04:27:27;102168.81;;;0.87;66.72
3294;BME280;1659;51.470;6.770;2023-04-05T04:29:53;102175.81;;;0.88;66.66
3294;BME280;1659;51.470;6.770;2023-04-05T04:32:27;102176.75;;;0.90;67.26
3294;BME280;1659;51.470;6.770;2023-04-05T04:35:13;102173.53;;;0.96;66.81
3294;BME280;1659;51.470;6.770;2023-04-05T04:37:43;102165.91;;;1.00;66.90
3294;BME280;1659;51.470;6.770;2023-04-05T04:40:13;102172.16;;;1.04;67.50
3294;BME280;1659;51.470;6.770;2023-04-05T04:42:41;102167.91;;;1.06;67.59
3294;BME280;1659;51.470;6.770;2023-04-05T04:45:11;102170.56;;;1.07;67.60
3294;BME280;1659;51.470;6.770;2023-04-05T04:47:37;102171.59;;;1.11;67.75
3294;BME280;1659;51.470;6.770;2023-04-05T04:50:04;102165.56;;;1.12;67.40
3294;BME280;1659;51.470;6.770;2023-04-05T04:52:33;102173.41;;;1.13;67.03
3294;BME280;1659;51.470;6.770;2023-04-05T04:55:00;102171.72;;;1.14;67.80
3294;BME280;1659;51.470;6.770;2023-04-05T04:57:27;102174.31;;;1.14;67.47
3294;BME280;1659;51.470;6.770;2023-04-05T04:59:54;102172.53;;;1.13;67.72
3294;BME280;1659;51.470;6.770;2023-04-05T05:02:22;102176.78;;;1.11;67.34
3294;BME280;1659;51.470;6.770;2023-04-05T05:04:48;102174.97;;;1.08;67.30
3294;BME280;1659;51.470;6.770;2023-04-05T05:07:15;102175.63;;;1.04;67.93
3294;BME280;1659;51.470;6.770;2023-04-05T05:09:44;102172.06;;;1.02;67.62
3294;BME280;1659;51.470;6.770;2023-04-05T05:12:12;102168.66;;;1.03;68.10
3294;BME280;1659;51.470;6.770;2023-04-05T05:14:38;102165.22;;;1.04;67.63
3294;BME280;1659;51.470;6.770;2023-04-05T05:17:05;102173.97;;;1.06;67.76
3294;BME280;1659;51.470;6.770;2023-04-05T05:19:32;102169.78;;;1.10;68.17
3294;BME280;1659;51.470;6.770;2023-04-05T05:21:59;102169.13;;;1.14;68.11
3294;BME280;1659;51.470;6.770;2023-04-05T05:24:25;102169.25;;;1.17;68.11
3294;BME280;1659;51.470;6.770;2023-04-05T05:26:53;102161.53;;;1.20;67.75
3294;BME280;1659;51.470;6.770;2023-04-05T05:29:20;102157.44;;;1.25;67.60
3294;BME280;1659;51.470;6.770;2023-04-05T05:31:46;102160.38;;;1.33;68.32
3294;BME280;1659;51.470;6.770;2023-04-05T05:34:13;102164.06;;;1.38;67.70
3294;BME280;1659;51.470;6.770;2023-04-05T05:36:40;102162.56;;;1.45;67.72
3294;BME280;1659;51.470;6.770;2023-04-05T05:39:06;102163.66;;;1.50;68.35
3294;BME280;1659;51.470;6.770;2023-04-05T05:41:33;102156.97;;;1.57;67.65
3294;BME280;1659;51.470;6.770;2023-04-05T05:44:01;102159.00;;;1.64;68.14
3294;BME280;1659;51.470;6.770;2023-04-05T05:46:28;102160.13;;;1.70;68.11
3294;BME280;1659;51.470;6.770;2023-04-05T05:48:54;102160.41;;;1.77;68.14
3294;BME280;1659;51.470;6.770;2023-04-05T05:51:21;102161.63;;;1.86;68.14
3294;BME280;1659;51.470;6.770;2023-04-05T05:53:48;102168.97;;;1.97;67.61
3294;BME280;1659;51.470;6.770;2023-04-05T05:56:14;102167.56;;;2.05;68.16
3294;BME280;1659;51.470;6.770;2023-04-05T05:58:41;102174.00;;;2.15;67.47
3294;BME280;1659;51.470;6.770;2023-04-05T06:01:09;102175.25;;;2.24;68.30
3294;BME280;1659;51.470;6.770;2023-04-05T06:03:36;102169.56;;;2.35;68.19
3294;BME280;1659;51.470;6.770;2023-04-05T06:06:03;102164.69;;;2.44;67.75
3294;BME280;1659;51.470;6.770;2023-04-05T06:08:33;102165.94;;;2.54;68.06
3294;BME280;1659;51.470;6.770;2023-04-05T06:10:59;102167.19;;;2.65;67.70
3294;BME280;1659;51.470;6.770;2023-04-05T06:13:26;102160.66;;;2.76;67.71
3294;BME280;1659;51.470;6.770;2023-04-05T06:15:52;102163.63;;;2.87;67.34
3294;BME280;1659;51.470;6.770;2023-04-05T06:18:20;102161.50;;;3.01;67.59
3294;BME280;1659;51.470;6.770;2023-04-05T06:20:47;102154.22;;;3.16;67.58
3294;BME280;1659;51.470;6.770;2023-04-05T06:23:13;102154.81;;;3.35;67.86
3294;BME280;1659;51.470;6.770;2023-04-05T06:25:41;102157.28;;;3.57;68.00
3294;BME280;1659;51.470;6.770;2023-04-05T06:28:08;102151.16;;;3.84;68.46
3294;BME280;1659;51.470;6.770;2023-04-05T06:30:35;102159.13;;;4.16;68.54
3294;BME280;1659;51.470;6.770;2023-04-05T06:33:01;102154.97;;;4.53;68.24
3294;BME280;1659;51.470;6.770;2023-04-05T06:35:29;102154.50;;;5.00;68.29
3294;BME280;1659;51.470;6.770;2023-04-05T06:37:56;102152.28;;;5.52;67.77
3294;BME280;1659;51.470;6.770;2023-04-05T06:40:22;102158.84;;;6.05;67.01
3294;BME280;1659;51.470;6.770;2023-04-05T06:42:49;102157.22;;;6.53;66.58
3294;BME280;1659;51.470;6.770;2023-04-05T06:45:15;102149.50;;;7.08;66.14
3294;BME280;1659;51.470;6.770;2023-04-05T06:47:43;102146.88;;;7.62;65.14
3294;BME280;1659;51.470;6.770;2023-04-05T06:50:09;102144.06;;;8.07;65.10
3294;BME280;1659;51.470;6.770;2023-04-05T06:52:38;102137.53;;;8.45;64.42
3294;BME280;1659;51.470;6.770;2023-04-05T06:55:05;102137.25;;;9.00;63.26
3294;BME280;1659;51.470;6.770;2023-04-05T06:57:32;102132.38;;;9.44;62.72
3294;BME280;1659;51.470;6.770;2023-04-05T06:59:59;102131.88;;;10.02;61.83
3294;BME280;1659;51.470;6.770;2023-04-05T07:02:26;102126.00;;;10.67;60.72
3294;BME280;1659;51.470;6.770;2023-04-05T07:04:52;102132.25;;;11.10;59.76
3294;BME280;1659;51.470;6.770;2023-04-05T07:07:24;102129.63;;;11.40;58.77
3294;BME280;1659;51.470;6.770;2023-04-05T07:09:52;102126.97;;;11.53;58.01
3294;BME280;1659;51.470;6.770;2023-04-05T07:12:19;102121.59;;;12.01;57.34
3294;BME280;1659;51.470;6.770;2023-04-05T07:14:46;102117.81;;;12.62;56.50
3294;BME280;1659;51.470;6.770;2023-04-05T07:17:12;102119.09;;;13.34;55.22
3294;BME280;1659;51.470;6.770;2023-04-05T07:19:39;102123.94;;;13.84;53.75
3294;BME280;1659;51.470;6.770;2023-04-05T07:22:05;102120.75;;;14.30;52.76
3294;BME280;1659;51.470;6.770;2023-04-05T07:24:32;102112.88;;;14.90;51.57
3294;BME280;1659;51.470;6.770;2023-04-05T07:27:00;102104.66;;;15.56;50.04
3294;BME280;1659;51.470;6.770;2023-04-05T07:29:27;102112.88;;;15.93;48.93
3294;BME280;1659;51.470;6.770;2023-04-05T07:31:53;102110.88;;;16.48;48.03
3294;BME280;1659;51.470;6.770;2023-04-05T07:34:20;102101.84;;;16.54;46.52
3294;BME280;1659;51.470;6.770;2023-04-05T07:36:46;102104.75;;;16.82;45.69
3294;BME280;1659;51.470;6.770;2023-04-05T07:39:14;102102.59;;;16.99;44.61
3294;BME280;1659;51.470;6.770;2023-04-05T07:41:41;102102.03;;;16.85;43.46
3294;BME280;1659;51.470;6.770;2023-04-05T07:44:09;102107.59;;;17.13;42.98
3294;BME280;1659;51.470;6.770;2023-04-05T07:46:35;102113.00;;;17.46;42.30
3294;BME280;1659;51.470;6.770;2023-04-05T07:49:03;102114.72;;;17.13;41.74
3294;BME280;1659;51.470;6.770;2023-04-05T07:51:30;102116.72;;;17.41;41.46
3294;BME280;1659;51.470;6.770;2023-04-05T07:54:00;102112.78;;;17.88;40.56
3294;BME280;1659;51.470;6.770;2023-04-05T07:56:27;102110.75;;;17.98;40.16
3294;BME280;1659;51.470;6.770;2023-04-05T07:58:54;102113.56;;;17.92;39.69
3294;BME280;1659;51.470;6.770;2023-04-05T08:01:22;102106.47;;;18.22;39.45
3294;BME280;1659;51.470;6.770;2023-04-05T08:03:52;102113.03;;;18.12;39.33
3294;BME280;1659;51.470;6.770;2023-04-05T08:06:18;102125.53;;;18.10;38.88
3294;BME280;1659;51.470;6.770;2023-04-05T08:08:46;102118.13;;;18.20;39.05
3294;BME280;1659;51.470;6.770;2023-04-05T08:11:12;102122.72;;;18.46;38.69
3294;BME280;1659;51.470;6.770;2023-04-05T08:13:39;102110.91;;;18.53;38.00
3294;BME280;1659;51.470;6.770;2023-04-05T08:16:06;102115.50;;;18.48;38.25
3294;BME280;1659;51.470;6.770;2023-04-05T08:18:34;102113.91;;;18.42;38.10
3294;BME280;1659;51.470;6.770;2023-04-05T08:21:01;102111.72;;;18.55;38.05
3294;BME280;1659;51.470;6.770;2023-04-05T08:23:28;102111.25;;;18.71;37.37
3294;BME280;1659;51.470;6.770;2023-04-05T08:25:55;102120.31;;;18.96;37.31
3294;BME280;1659;51.470;6.770;2023-04-05T08:28:21;102112.81;;;19.06;36.60
3294;BME280;1659;51.470;6.770;2023-04-05T08:30:52;102103.81;;;19.35;36.40
3294;BME280;1659;51.470;6.770;2023-04-05T08:33:18;102104.28;;;19.73;36.26
3294;BME280;1659;51.470;6.770;2023-04-05T08:35:46;102110.25;;;20.07;35.99
3294;BME280;1659;51.470;6.770;2023-04-05T08:38:13;102113.06;;;20.27;35.96
3294;BME280;1659;51.470;6.770;2023-04-05T08:40:41;102111.41;;;20.23;35.63
3294;BME280;1659;51.470;6.770;2023-04-05T08:43:10;102106.25;;;20.18;35.45
3294;BME280;1659;51.470;6.770;2023-04-05T08:45:43;102098.25;;;20.17;35.33
3294;BME280;1659;51.470;6.770;2023-04-05T08:48:11;102096.06;;;20.50;35.26
3294;BME280;1659;51.470;6.770;2023-04-05T08:50:38;102092.94;;;20.61;34.91
3294;BME280;1659;51.470;6.770;2023-04-05T08:53:07;102101.28;;;20.77;34.64
3294;BME280;1659;51.470;6.770;2023-04-05T08:55:35;102097.69;;;20.78;34.58
3294;BME280;1659;51.470;6.770;2023-04-05T08:58:02;102092.59;;;20.92;34.37
3294;BME280;1659;51.470;6.770;2023-04-05T09:00:33;102095.28;;;20.92;34.48
3294;BME280;1659;51.470;6.770;2023-04-05T09:03:00;102099.91;;;21.11;34.26
3294;BME280;1659;51.470;6.770;2023-04-05T09:05:28;102102.03;;;21.03;34.27
3294;BME280;1659;51.470;6.770;2023-04-05T09:07:56;102097.81;;;20.97;33.91
3294;BME280;1659;51.470;6.770;2023-04-05T09:10:26;102082.81;;;20.69;33.91
3294;BME280;1659;51.470;6.770;2023-04-05T09:12:53;102098.13;;;20.20;33.39
3294;BME280;1659;51.470;6.770;2023-04-05T09:15:21;102087.97;;;19.79;33.33
3294;BME280;1659;51.470;6.770;2023-04-05T09:17:51;102089.41;;;19.90;33.28
3294;BME280;1659;51.470;6.770;2023-04-05T09:20:19;102083.41;;;20.07;33.33
3294;BME280;1659;51.470;6.770;2023-04-05T09:22:46;102080.25;;;20.19;32.74
3294;BME280;1659;51.470;6.770;2023-04-05T09:25:33;102071.41;;;20.39;32.41
3294;BME280;1659;51.470;6.770;2023-04-05T09:28:00;102073.13;;;20.42;32.64
3294;BME280;1659;51.470;6.770;2023-04-05T09:30:28;102083.28;;;20.33;32.47
3294;BME280;1659;51.470;6.770;2023-04-05T09:32:55;102079.47;;;20.39;32.53
3294;BME280;1659;51.470;6.770;2023-04-05T09:35:23;102081.44;;;20.58;32.39
3294;BME280;1659;51.470;6.770;2023-04-05T09:37:51;102076.13;;;20.80;32.25
3294;BME280;1659;51.470;6.770;2023-04-05T09:40:19;102079.91;;;20.74;31.79
3294;BME280;1659;51.470;6.770;2023-04-05T09:42:47;102079.13;;;20.48;31.51
3294;BME280;1659;51.470;6.770;2023-04-05T09:45:15;102079.03;;;20.51;32.10
3294;BME280;1659;51.470;6.770;2023-04-05T09:47:52;102078.81;;;20.80;31.98
3294;BME280;1659;51.470;6.770;2023-04-05T09:50:19;102084.91;;;21.05;32.15
3294;BME280;1659;51.470;6.770;2023-04-05T09:52:46;102077.97;;;21.22;31.71
3294;BME280;1659;51.470;6.770;2023-04-05T09:55:24;102077.00;;;21.23;31.09
3294;BME280;1659;51.470;6.770;2023-04-05T09:58:10;102076.19;;;21.21;31.18
3294;BME280;1659;51.470;6.770;2023-04-05T10:00:37;102077.91;;;21.01;31.21
3294;BME280;1659;51.470;6.770;2023-04-05T10:03:04;102079.19;;;20.92;30.95
3294;BME280;1659;51.470;6.770;2023-04-05T10:05:30;102073.63;;;20.75;30.85
3294;BME280;1659;51.470;6.770;2023-04-05T10:07:58;102066.09;;;20.61;30.59
3294;BME280;1659;51.470;6.770;2023-04-05T10:10:25;102063.50;;;20.58;30.72
3294;BME280;1659;51.470;6.770;2023-04-05T10:12:52;102059.56;;;20.90;30.60
3294;BME280;1659;51.470;6.770;2023-04-05T10:15:23;102056.91;;;21.11;30.19
3294;BME280;1659;51.470;6.770;2023-04-05T10:17:55;102056.31;;;21.25;30.42
3294;BME280;1659;51.470;6.770;2023-04-05T10:20:27;102057.06;;;21.49;30.12
3294;BME280;1659;51.470;6.770;2023-04-05T10:23:02;102048.94;;;21.50;30.01
3294;BME280;1659;51.470;6.770;2023-04-05T10:25:42;102049.28;;;21.63;30.02
3294;BME280;1659;51.470;6.770;2023-04-05T10:28:15;102045.69;;;21.63;29.32
3294;BME280;1659;51.470;6.770;2023-04-05T10:30:46;102042.53;;;21.33;29.21
3294;BME280;1659;51.470;6.770;2023-04-05T10:33:19;102038.97;;;21.32;29.31
3294;BME280;1659;51.470;6.770;2023-04-05T10:35:56;102033.75;;;21.49;29.11
3294;BME280;1659;51.470;6.770;2023-04-05T10:38:27;102034.47;;;21.33;28.92
3294;BME280;1659;51.470;6.770;2023-04-05T10:40:56;102050.56;;;20.69;29.18
3294;BME280;1659;51.470;6.770;2023-04-05T10:43:26;102038.00;;;20.70;29.42
3294;BME280;1659;51.470;6.770;2023-04-05T10:45:56;102037.50;;;20.82;29.20
3294;BME280;1659;51.470;6.770;2023-04-05T10:48:34;102034.84;;;21.03;28.77
3294;BME280;1659;51.470;6.770;2023-04-05T10:51:02;102026.66;;;21.06;28.80
3294;BME280;1659;51.470;6.770;2023-04-05T10:53:30;102033.25;;;20.99;28.25
3294;BME280;1659;51.470;6.770;2023-04-05T10:55:57;102032.97;;;20.62;28.35
3294;BME280;1659;51.470;6.770;2023-04-05T10:58:27;102015.16;;;20.58;28.67
3294;BME280;1659;51.470;6.770;2023-04-05T11:00:56;102008.56;;;20.67;28.63
3294;BME280;1659;51.470;6.770;2023-04-05T11:03:46;102008.56;;;20.89;28.32
3294;BME280;1659;51.470;6.770;2023-04-05T11:06:20;102012.78;;;20.94;28.21
3294;BME280;1659;51.470;6.770;2023-04-05T11:08:48;102011.13;;;20.26;27.89
3294;BME280;1659;51.470;6.770;2023-04-05T11:11:17;102011.59;;;19.90;28.25
3294;BME280;1659;51.470;6.770;2023-04-05T11:13:51;102009.00;;;19.13;28.02
3294;BME280;1659;51.470;6.770;2023-04-05T11:16:21;102007.31;;;18.55;28.23
3294;BME280;1659;51.470;6.770;2023-04-05T11:18:49;102008.06;;;18.32;28.22
3294;BME280;1659;51.470;6.770;2023-04-05T11:21:21;102010.03;;;18.25;28.33
3294;BME280;1659;51.470;6.770;2023-04-05T11:24:05;102004.69;;;18.54;27.78
3294;BME280;1659;51.470;6.770;2023-04-05T11:26:34;101998.28;;;18.59;28.01
3294;BME280;1659;51.470;6.770;2023-04-05T11:29:18;102000.78;;;18.64;28.08
3294;BME280;1659;51.470;6.770;2023-04-05T11:31:58;102006.41;;;19.10;27.73
3294;BME280;1659;51.470;6.770;2023-04-05T11:34:25;102001.63;;;18.94;27.74
3294;BME280;1659;51.470;6.770;2023-04-05T11:36:51;101996.94;;;18.73;28.01
3294;BME280;1659;51.470;6.770;2023-04-05T11:39:25;101997.03;;;19.23;27.67
3294;BME280;1659;51.470;6.770;2023-04-05T11:42:00;101991.91;;;19.66;27.61
3294;BME280;1659;51.470;6.770;2023-04-05T11:44:28;101987.94;;;20.01;27.61
3294;BME280;1659;51.470;6.770;2023-04-05T11:46:57;101983.38;;;20.47;27.39
3294;BME280;1659;51.470;6.770;2023-04-05T11:49:24;101984.84;;;20.78;26.98
3294;BME280;1659;51.470;6.770;2023-04-05T11:51:52;101984.22;;;20.27;26.98
3294;BME280;1659;51.470;6.770;2023-04-05T11:54:28;101982.66;;;19.98;27.18
3294;BME280;1659;51.470;6.770;2023-04-05T11:56:55;101969.63;;;19.89;27.22
3294;BME280;1659;51.470;6.770;2023-04-05T11:59:28;101971.88;;;19.99;27.16
3294;BME280;1659;51.470;6.770;2023-04-05T12:01:59;101965.28;;;19.85;27.32
3294;BME280;1659;51.470;6.770;2023-04-05T12:04:25;101962.22;;;20.17;27.24
3294;BME280;1659;51.470;6.770;2023-04-05T12:07:07;101967.09;;;20.52;26.72
3294;BME280;1659;51.470;6.770;2023-04-05T12:09:34;101953.88;;;20.69;26.61
3294;BME280;1659;51.470;6.770;2023-04-05T12:12:00;101946.75;;;20.89;26.79
3294;BME280;1659;51.470;6.770;2023-04-05T12:14:27;101951.00;;;20.94;26.51
3294;BME280;1659;51.470;6.770;2023-04-05T12:16:53;101953.75;;;20.72;26.94
3294;BME280;1659;51.470;6.770;2023-04-05T12:19:22;101949.03;;;20.55;27.13
3294;BME280;1659;51.470;6.770;2023-04-05T12:21:49;101956.25;;;20.55;27.15
3294;BME280;1659;51.470;6.770;2023-04-05T12:24:16;101946.25;;;20.36;27.17
3294;BME280;1659;51.470;6.770;2023-04-05T12:26:42;101941.50;;;20.65;26.94
3294;BME280;1659;51.470;6.770;2023-04-05T12:29:09;101938.81;;;20.65;26.83
3294;BME280;1659;51.470;6.770;2023-04-05T12:31:39;101937.22;;;20.82;26.52
3294;BME280;1659;51.470;6.770;2023-04-05T12:34:05;101937.81;;;21.09;26.32
3294;BME280;1659;51.470;6.770;2023-04-05T12:36:34;101934.56;;;21.42;25.99
3294;BME280;1659;51.470;6.770;2023-04-05T12:39:05;101929.03;;;21.84;25.63
3294;BME280;1659;51.470;6.770;2023-04-05T12:41:32;101931.66;;;21.86;25.52
3294;BME280;1659;51.470;6.770;2023-04-05T12:44:04;101915.31;;;22.08;25.38
3294;BME280;1659;51.470;6.770;2023-04-05T12:46:38;101913.28;;;22.32;25.28
3294;BME280;1659;51.470;6.770;2023-04-05T12:49:05;101914.06;;;22.52;25.01
3294;BME280;1659;51.470;6.770;2023-04-05T12:51:36;101912.50;;;23.00;24.75
3294;BME280;1659;51.470;6.770;2023-04-05T12:54:07;101904.22;;;23.54;24.52
3294;BME280;1659;51.470;6.770;2023-04-05T12:56:33;101906.66;;;23.59;24.56
3294;BME280;1659;51.470;6.770;2023-04-05T12:59:02;101908.97;;;23.33;25.01
3294;BME280;1659;51.470;6.770;2023-04-05T13:01:30;101899.84;;;23.51;24.73
3294;BME280;1659;51.470;6.770;2023-04-05T13:03:57;101900.22;;;23.45;24.41
3294;BME280;1659;51.470;6.770;2023-04-05T13:06:25;101892.22;;;23.60;24.61
3294;BME280;1659;51.470;6.770;2023-04-05T13:08:53;101893.06;;;23.44;24.07
3294;BME280;1659;51.470;6.770;2023-04-05T13:11:20;101891.03;;;23.32;24.40
3294;BME280;1659;51.470;6.770;2023-04-05T13:13:46;101885.91;;;23.43;24.17
3294;BME280;1659;51.470;6.770;2023-04-05T13:16:13;101885.75;;;23.46;23.83
3294;BME280;1659;51.470;6.770;2023-04-05T13:18:40;101877.91;;;23.08;23.58
3294;BME280;1659;51.470;6.770;2023-04-05T13:21:07;101883.09;;;22.60;23.62
3294;BME280;1659;51.470;6.770;2023-04-05T13:23:34;101872.25;;;22.79;23.63
3294;BME280;1659;51.470;6.770;2023-04-05T13:26:03;101876.81;;;23.12;23.35
3294;BME280;1659;51.470;6.770;2023-04-05T13:28:29;101873.41;;;23.42;23.24